Station Historical Data
Daily Summary for September 9, 2017 Units:  Metric    English   Both
« Previous Day
Next Day »
Daily Weekly Monthly Yearly Custom
  High: Low: Average:
Temperature: 17.8 °C 6.5 °C 12.5 °C
Dew Point: 9.5 °C 5.1 °C 7.5 °C
Humidity: 92% 52% 73%
Wind Speed: 11.3km/h 0km/h 1.6km/h
Wind Gust: 17.7km/h - -
Wind- - SW
Pressure: 1030.4 hPa 1025.6 hPa -
Precipitation: 0 mm    
Historical Graphs
 
 
Tabular Data for September 9, 2017
Time Temperature Dew Point Pressure Wind Wind Speed Wind Gust Humidity Rainfall Rate (Hourly)
00:04 11.9 °C 8.8 °C 1025.6 hPa Calm     81% 0 mm
00:14 11.5 °C 8.6 °C 1025.6 hPa Calm   3.2 km/h 82% 0 mm
00:19 11.4 °C 8.6 °C 1026 hPa Calm     83% 0 mm
00:24 11.2 °C 8.4 °C 1025.6 hPa Calm     83% 0 mm
00:29 11.1 °C 8.3 °C 1026 hPa Calm     83% 0 mm
00:34 10.9 °C 8.3 °C 1026 hPa Calm     84% 0 mm
00:39 10.8 °C 8.2 °C 1026 hPa Calm     84% 0 mm
00:44 10.7 °C 8.1 °C 1026 hPa Calm     84% 0 mm
00:49 10.6 °C 8.2 °C 1026 hPa Calm     85% 0 mm
00:54 10.4 °C 8.1 °C 1026 hPa Calm     85% 0 mm
00:59 10.3 °C 8.1 °C 1026 hPa Calm     86% 0 mm
01:04 10.2 °C 8 °C 1026 hPa Calm     86% 0 mm
01:09 10.2 °C 7.9 °C 1026 hPa Calm     86% 0 mm
01:14 9.9 °C 7.7 °C 1026.3 hPa Calm     86% 0 mm
01:19 9.8 °C 7.6 °C 1026.3 hPa Calm     86% 0 mm
01:24 9.7 °C 7.6 °C 1026.3 hPa Calm     87% 0 mm
01:29 9.6 °C 7.5 °C 1026.3 hPa Calm     87% 0 mm
01:34 9.6 °C 7.7 °C 1026.3 hPa Calm     88% 0 mm
01:39 9.6 °C 7.7 °C 1026.3 hPa Calm     88% 0 mm
01:44 9.6 °C 7.7 °C 1026.3 hPa Calm     88% 0 mm
01:49 9.5 °C 7.6 °C 1026.3 hPa Calm     88% 0 mm
01:54 9.6 °C 7.7 °C 1026.3 hPa Calm     88% 0 mm
01:59 9.5 °C 7.6 °C 1026.3 hPa Calm     88% 0 mm
02:04 9.5 °C 7.6 °C 1026.3 hPa Calm     88% 0 mm
02:09 9.5 °C 7.6 °C 1026.3 hPa Calm     88% 0 mm
02:14 9.5 °C 7.6 °C 1026.3 hPa Calm     88% 0 mm
02:19 9.5 °C 7.6 °C 1026.3 hPa Calm     88% 0 mm
02:24 9.5 °C 7.6 °C 1026.3 hPa Calm     88% 0 mm
02:29 9.5 °C 7.6 °C 1026.6 hPa Calm     88% 0 mm
02:34 9.5 °C 7.6 °C 1026.6 hPa Calm     88% 0 mm
02:39 9.4 °C 7.6 °C 1026.6 hPa Calm     88% 0 mm
02:44 9.4 °C 7.6 °C 1026.6 hPa Calm     88% 0 mm
02:49 9.4 °C 7.5 °C 1026.6 hPa Calm     88% 0 mm
02:54 9.4 °C 7.7 °C 1026.6 hPa Calm     89% 0 mm
02:59 9.5 °C 7.8 °C 1026.6 hPa Calm     89% 0 mm
03:04 9.6 °C 7.8 °C 1026.6 hPa Calm     89% 0 mm
03:09 9.6 °C 7.9 °C 1027 hPa Calm     89% 0 mm
03:14 9.6 °C 7.7 °C 1027 hPa Calm     88% 0 mm
03:19 9.5 °C 7.6 °C 1027 hPa Calm     88% 0 mm
03:24 9.4 °C 7.6 °C 1027 hPa Calm     88% 0 mm
03:29 9.3 °C 7.4 °C 1027 hPa Calm     88% 0 mm
03:34 9.3 °C 7.6 °C 1027 hPa Calm     89% 0 mm
03:39 9.2 °C 7.5 °C 1027 hPa Calm     89% 0 mm
03:44 9.2 °C 7.4 °C 1027 hPa Calm     89% 0 mm
03:49 9.1 °C 7.4 °C 1027 hPa Calm     89% 0 mm
03:54 9.2 °C 7.4 °C 1027 hPa Calm   3.2 km/h 89% 0 mm
03:59 9.2 °C 7.5 °C 1027 hPa Calm   3.2 km/h 89% 0 mm
04:04 9.2 °C 7.4 °C 1027 hPa Calm   1.6 km/h 89% 0 mm
04:09 9.1 °C 7.4 °C 1027 hPa Calm     89% 0 mm
04:14 9.1 °C 7.3 °C 1027 hPa Calm     89% 0 mm
04:19 8.9 °C 7 °C 1027 hPa Calm     88% 0 mm
04:24 8.8 °C 7.1 °C 1027 hPa Calm     89% 0 mm
04:29 8.8 °C 7.1 °C 1027 hPa Calm     89% 0 mm
04:34 8.9 °C 7.2 °C 1027.3 hPa Calm   1.6 km/h 89% 0 mm
04:39 9 °C 7.3 °C 1027 hPa Calm     89% 0 mm
04:44 9 °C 7.1 °C 1027.3 hPa Calm     88% 0 mm
04:49 9 °C 7.1 °C 1027.3 hPa Calm     88% 0 mm
04:54 8.9 °C 7.1 °C 1027.3 hPa Calm   3.2 km/h 88% 0 mm
04:59 8.9 °C 7 °C 1027.3 hPa Calm   3.2 km/h 88% 0 mm
05:04 8.8 °C 6.9 °C 1027.3 hPa Calm     88% 0 mm
05:09 8.6 °C 6.7 °C 1027.3 hPa Calm     88% 0 mm
05:14 8.4 °C 6.6 °C 1027.3 hPa Calm     88% 0 mm
05:19 8.2 °C 6.3 °C 1027.3 hPa Calm     88% 0 mm
05:24 7.9 °C 6.1 °C 1027.3 hPa Calm     88% 0 mm
05:29 7.8 °C 5.9 °C 1027.7 hPa Calm     88% 0 mm
05:34 7.7 °C 5.8 °C 1027.7 hPa Calm     88% 0 mm
05:39 7.6 °C 5.8 °C 1027.7 hPa Calm     89% 0 mm
05:44 7.4 °C 5.7 °C 1027.7 hPa Calm     89% 0 mm
05:49 7.3 °C 5.6 °C 1028 hPa Calm     89% 0 mm
05:54 7.2 °C 5.6 °C 1028 hPa Calm     89% 0 mm
05:59 7.2 °C 5.5 °C 1028 hPa Calm     89% 0 mm
06:04 7.1 °C 5.4 °C 1028 hPa Calm     89% 0 mm
06:09 7 °C 5.4 °C 1028 hPa Calm     90% 0 mm
06:14 7 °C 5.4 °C 1028.3 hPa Calm     90% 0 mm
06:19 6.9 °C 5.4 °C 1028.3 hPa Calm     90% 0 mm
06:24 6.9 °C 5.4 °C 1028.3 hPa Calm     90% 0 mm
06:29 6.8 °C 5.3 °C 1028.3 hPa Calm     90% 0 mm
06:34 6.7 °C 5.2 °C 1028.3 hPa Calm     90% 0 mm
06:39 6.7 °C 5.2 °C 1028.3 hPa Calm     90% 0 mm
06:44 6.6 °C 5.1 °C 1028.7 hPa Calm     90% 0 mm
06:49 6.6 °C 5.2 °C 1028.7 hPa Calm     91% 0 mm
06:54 6.5 °C 5.1 °C 1028.7 hPa Calm     91% 0 mm
06:59 6.5 °C 5.1 °C 1028.7 hPa Calm     91% 0 mm
07:04 6.6 °C 5.2 °C 1028.7 hPa Calm     91% 0 mm
07:09 6.6 °C 5.2 °C 1028.7 hPa Calm     91% 0 mm
07:14 6.7 °C 5.3 °C 1028.7 hPa Calm     91% 0 mm
07:19 6.9 °C 5.5 °C 1028.7 hPa Calm     91% 0 mm
07:24 7.1 °C 5.9 °C 1029 hPa Calm     92% 0 mm
07:29 7.6 °C 6.3 °C 1029 hPa Calm     92% 0 mm
07:34 7.9 °C 6.7 °C 1029 hPa Calm   1.6 km/h 92% 0 mm
07:39 8.3 °C 7.1 °C 1029 hPa Calm   4.8 km/h 92% 0 mm
07:44 8.6 °C 7.4 °C 1029.3 hPa Calm   6.4 km/h 92% 0 mm
07:49 8.9 °C 7.7 °C 1029.3 hPa Calm   3.2 km/h 92% 0 mm
07:54 9.3 °C 7.9 °C 1029.3 hPa North 1.6 km/h 4.8 km/h 91% 0 mm
07:59 9.7 °C 8.1 °C 1029.3 hPa North 1.6 km/h 8 km/h 90% 0 mm
08:04 10.1 °C 8.2 °C 1029.3 hPa Calm   4.8 km/h 88% 0 mm
08:09 10.4 °C 8.2 °C 1029.3 hPa Calm   8 km/h 86% 0 mm
08:14 10.8 °C 8.2 °C 1029.3 hPa North 3.2 km/h 4.8 km/h 84% 0 mm
08:19 11.2 °C 8.2 °C 1029.3 hPa NNW 1.6 km/h 8 km/h 82% 0 mm
08:24 11.4 °C 8.1 °C 1029.3 hPa Calm   8 km/h 80% 0 mm
08:29 11.8 °C 8.1 °C 1029.3 hPa NNW 3.2 km/h 8 km/h 78% 0 mm
08:34 12.2 °C 8.3 °C 1029.7 hPa NNW 3.2 km/h 8 km/h 77% 0 mm
08:39 12.4 °C 8.3 °C 1029.7 hPa North 1.6 km/h 6.4 km/h 76% 0 mm
08:44 12.7 °C 8.2 °C 1029.7 hPa North 1.6 km/h 9.7 km/h 74% 0 mm
08:49 12.8 °C 8.1 °C 1029.7 hPa NNW 3.2 km/h 11.3 km/h 73% 0 mm
08:54 13.2 °C 8.4 °C 1029.7 hPa NW 4.8 km/h 9.7 km/h 73% 0 mm
08:59 13.3 °C 8.6 °C 1029.7 hPa WNW 3.2 km/h 6.4 km/h 73% 0 mm
09:04 13.3 °C 8.4 °C 1029.7 hPa NNW 3.2 km/h 8 km/h 72% 0 mm
09:09 13.6 °C 8.4 °C 1029.7 hPa NNW 1.6 km/h 11.3 km/h 71% 0 mm
09:14 13.8 °C 8.4 °C 1029.7 hPa NW 3.2 km/h 8 km/h 70% 0 mm
09:19 13.8 °C 8.2 °C 1029.7 hPa NNE 3.2 km/h 8 km/h 69% 0 mm
09:24 13.8 °C 7.8 °C 1029.7 hPa NNE 1.6 km/h 11.3 km/h 67% 0 mm
09:29 14.1 °C 8.1 °C 1029.7 hPa NNE 1.6 km/h 8 km/h 67% 0 mm
09:34 14 °C 7.7 °C 1030 hPa North 3.2 km/h 11.3 km/h 66% 0 mm
09:39 14.2 °C 7.5 °C 1030 hPa North 6.4 km/h 14.5 km/h 64% 0 mm
09:44 14.2 °C 7.7 °C 1030 hPa NNW 6.4 km/h 14.5 km/h 65% 0 mm
09:49 13.8 °C 7.4 °C 1030 hPa North 4.8 km/h 12.9 km/h 65% 0 mm
09:54 13.8 °C 7.4 °C 1030 hPa North 4.8 km/h 9.7 km/h 65% 0 mm
09:59 14.3 °C 8 °C 1030 hPa NNE 4.8 km/h 14.5 km/h 66% 0 mm
10:04 14.2 °C 7.7 °C 1030.4 hPa North 1.6 km/h 8 km/h 65% 0 mm
10:09 13.7 °C 7.5 °C 1030.4 hPa North 6.4 km/h 8 km/h 66% 0 mm
10:14 13.7 °C 7 °C 1030 hPa NNW 3.2 km/h 9.7 km/h 64% 0 mm
10:19 13.6 °C 7.1 °C 1030.4 hPa Calm   4.8 km/h 65% 0 mm
10:24 13.6 °C 7.1 °C 1030.4 hPa North 1.6 km/h 9.7 km/h 65% 0 mm
10:29 13.7 °C 7.3 °C 1030.4 hPa Calm   8 km/h 65% 0 mm
10:34 13.8 °C 6.8 °C 1030.4 hPa NNW 8 km/h 14.5 km/h 63% 0 mm
10:39 13.9 °C 6.8 °C 1030.4 hPa North 4.8 km/h 14.5 km/h 62% 0 mm
10:44 14.4 °C 7.2 °C 1030.4 hPa North 4.8 km/h 12.9 km/h 62% 0 mm
10:49 14.9 °C 7.2 °C 1030.4 hPa North 4.8 km/h 12.9 km/h 60% 0 mm
10:54 15.5 °C 8.2 °C 1030.4 hPa NNE 3.2 km/h 9.7 km/h 62% 0 mm
10:59 15.6 °C 7.8 °C 1030.4 hPa NNE 3.2 km/h 9.7 km/h 60% 0 mm
11:04 15.6 °C 7.6 °C 1030.4 hPa NNE 3.2 km/h 11.3 km/h 59% 0 mm
11:09 15.8 °C 8.3 °C 1030.4 hPa NNW 4.8 km/h 16.1 km/h 61% 0 mm
11:14 16.1 °C 7.6 °C 1030.4 hPa NNW 1.6 km/h 11.3 km/h 57% 0 mm
11:19 15.2 °C 7.3 °C 1030.4 hPa NNE 1.6 km/h 12.9 km/h 59% 0 mm
11:24 14.4 °C 6.2 °C 1030.4 hPa NW 4.8 km/h 11.3 km/h 58% 0 mm
11:29 15 °C 6.8 °C 1030.4 hPa NNW 4.8 km/h 16.1 km/h 58% 0 mm
11:34 14.8 °C 7.6 °C 1030.4 hPa NNW 6.4 km/h 16.1 km/h 62% 0 mm
11:39 14.3 °C 6.4 °C 1030.4 hPa NNW 4.8 km/h 12.9 km/h 59% 0 mm
11:44 15.2 °C 7.7 °C 1030.4 hPa NNE 4.8 km/h 8 km/h 61% 0 mm
11:49 15.6 °C 7.6 °C 1030.4 hPa NNE 3.2 km/h 9.7 km/h 59% 0 mm
11:54 15.2 °C 8.2 °C 1030.4 hPa NNE 4.8 km/h 11.3 km/h 63% 0 mm
11:59 16.2 °C 8.6 °C 1030.4 hPa NNE 3.2 km/h 11.3 km/h 61% 0 mm
12:09 16.1 °C 7.3 °C 1030.4 hPa North 4.8 km/h 14.5 km/h 56% 0 mm
12:14 15.4 °C 7.7 °C 1030.4 hPa North 4.8 km/h 14.5 km/h 60% 0 mm
12:19 16.2 °C 8.4 °C 1030.4 hPa NNW 4.8 km/h 9.7 km/h 60% 0 mm
12:24 16.4 °C 7.3 °C 1030.4 hPa Calm   8 km/h 55% 0 mm
12:29 16.7 °C 7.8 °C 1030.4 hPa NE 6.4 km/h 9.7 km/h 56% 0 mm
12:34 16.1 °C 7.3 °C 1030.4 hPa North 4.8 km/h 11.3 km/h 56% 0 mm
12:39 15.2 °C 7.3 °C 1030.4 hPa NW 4.8 km/h 9.7 km/h 59% 0 mm
12:44 16.2 °C 8.4 °C 1030.4 hPa NE 4.8 km/h 9.7 km/h 60% 0 mm
12:49 16.9 °C 8.3 °C 1030 hPa NNE 3.2 km/h 11.3 km/h 57% 0 mm
12:54 16.9 °C 8.3 °C 1030.4 hPa NNE 4.8 km/h 16.1 km/h 57% 0 mm
12:59 16.5 °C 7.4 °C 1030.4 hPa NNE 6.4 km/h 17.7 km/h 55% 0 mm
13:04 16.6 °C 8.8 °C 1030.4 hPa NNE 6.4 km/h 17.7 km/h 60% 0 mm
13:09 16.8 °C 8 °C 1030.4 hPa North 4.8 km/h 12.9 km/h 56% 0 mm
13:14 16.8 °C 7.4 °C 1030.4 hPa NNE 3.2 km/h 11.3 km/h 54% 0 mm
13:19 16.2 °C 7.6 °C 1030 hPa North 1.6 km/h 9.7 km/h 57% 0 mm
13:24 16.4 °C 7.8 °C 1030 hPa NE 4.8 km/h 12.9 km/h 57% 0 mm
13:29 17 °C 8.9 °C 1030 hPa NW 3.2 km/h 8 km/h 59% 0 mm
13:34 16.2 °C 7.1 °C 1030 hPa West 3.2 km/h 9.7 km/h 55% 0 mm
13:39 16.7 °C 8.4 °C 1030.4 hPa SSE 1.6 km/h 8 km/h 58% 0 mm
13:44 16.7 °C 7.9 °C 1030 hPa ENE 4.8 km/h 12.9 km/h 56% 0 mm
13:49 16.5 °C 7.7 °C 1030.4 hPa NNW 11.3 km/h 12.9 km/h 56% 0 mm
13:54 16.7 °C 6.8 °C 1030 hPa NNW 6.4 km/h 12.9 km/h 52% 0 mm
13:59 16.9 °C 8.1 °C 1030 hPa NNW 4.8 km/h 11.3 km/h 56% 0 mm
14:04 17.4 °C 9.3 °C 1030 hPa NNW 4.8 km/h 16.1 km/h 59% 0 mm
14:09 17.1 °C 7.1 °C 1030 hPa NNW 6.4 km/h 16.1 km/h 52% 0 mm
14:14 16.7 °C 8.3 °C 1030 hPa NNW 4.8 km/h 16.1 km/h 58% 0 mm
14:19 16.7 °C 8.2 °C 1030 hPa NW 4.8 km/h 16.1 km/h 57% 0 mm
14:24 16.4 °C 6.8 °C 1030 hPa NNW 4.8 km/h 9.7 km/h 53% 0 mm
14:29 16.6 °C 6.9 °C 1030 hPa NNW 4.8 km/h 11.3 km/h 53% 0 mm
14:34 16.5 °C 7.9 °C 1030 hPa Calm   11.3 km/h 57% 0 mm
14:39 16.8 °C 8 °C 1030 hPa North 4.8 km/h 11.3 km/h 56% 0 mm
14:44 16.7 °C 7.8 °C 1030 hPa West 4.8 km/h 14.5 km/h 56% 0 mm
14:49 16.7 °C 7.3 °C 1029.7 hPa Calm   8 km/h 54% 0 mm
14:54 16.7 °C 7.6 °C 1029.7 hPa NE 4.8 km/h 11.3 km/h 55% 0 mm
14:59 16.7 °C 7.3 °C 1030 hPa North 4.8 km/h 11.3 km/h 54% 0 mm
15:04 16.8 °C 7.2 °C 1029.7 hPa NNW 4.8 km/h 11.3 km/h 53% 0 mm
15:09 17.4 °C 8.6 °C 1029.7 hPa North 4.8 km/h 12.9 km/h 56% 0 mm
15:14 16.8 °C 7.4 °C 1029.7 hPa North 3.2 km/h 12.9 km/h 54% 0 mm
15:19 16.7 °C 7.6 °C 1029.7 hPa NNE 3.2 km/h 8 km/h 55% 0 mm
15:24 16.6 °C 7.8 °C 1029.7 hPa NE 3.2 km/h 11.3 km/h 56% 0 mm
15:29 17 °C 8.4 °C 1029.7 hPa NE 3.2 km/h 11.3 km/h 57% 0 mm
15:34 17.8 °C 8.1 °C 1029.3 hPa NE 3.2 km/h 11.3 km/h 53% 0 mm
15:39 17.2 °C 8.1 °C 1029.7 hPa North 3.2 km/h 14.5 km/h 55% 0 mm
15:44 16.6 °C 7.7 °C 1029.3 hPa NNW 4.8 km/h 14.5 km/h 56% 0 mm
15:49 16.3 °C 7.5 °C 1029.3 hPa NW 3.2 km/h 11.3 km/h 56% 0 mm
15:54 17.1 °C 9.5 °C 1029.3 hPa NNW 3.2 km/h 8 km/h 61% 0 mm
15:59 17.6 °C 8.1 °C 1029.3 hPa NE 9.7 km/h 16.1 km/h 54% 0 mm
16:04 17.5 °C 8.6 °C 1029.3 hPa ENE 4.8 km/h 16.1 km/h 56% 0 mm
16:09 17.4 °C 8.8 °C 1029.3 hPa ENE 3.2 km/h 11.3 km/h 57% 0 mm
16:14 17.4 °C 8.1 °C 1029 hPa NNE 3.2 km/h 12.9 km/h 54% 0 mm
16:19 17.4 °C 8 °C 1029 hPa North 3.2 km/h 12.9 km/h 54% 0 mm
16:24 17.7 °C 8.8 °C 1029 hPa NNW 3.2 km/h 9.7 km/h 56% 0 mm
16:29 17.8 °C 9.2 °C 1029 hPa NW 4.8 km/h 9.7 km/h 57% 0 mm
16:34 17.6 °C 8.4 °C 1029 hPa NNE 3.2 km/h 8 km/h 55% 0 mm
16:39 16.9 °C 8.1 °C 1029.3 hPa North 3.2 km/h 9.7 km/h 56% 0 mm
16:44 16.4 °C 7.6 °C 1029.3 hPa NNE 1.6 km/h 6.4 km/h 56% 0 mm
16:49 16.8 °C 8.4 °C 1029 hPa West 3.2 km/h 8 km/h 58% 0 mm
16:54 17.7 °C 8.6 °C 1029 hPa North 3.2 km/h 11.3 km/h 55% 0 mm
16:59 17.3 °C 7.9 °C 1029 hPa Calm   8 km/h 54% 0 mm
17:04 16.8 °C 7.9 °C 1029 hPa Calm   8 km/h 56% 0 mm
17:09 16.8 °C 9 °C 1029.3 hPa Calm   6.4 km/h 60% 0 mm
17:14 17.4 °C 8.8 °C 1029.3 hPa North 1.6 km/h 8 km/h 57% 0 mm
17:19 17 °C 8.7 °C 1029.3 hPa NNE 3.2 km/h 14.5 km/h 58% 0 mm
17:24 16.6 °C 8.3 °C 1029.3 hPa NE 6.4 km/h 14.5 km/h 58% 0 mm
17:29 15.9 °C 7.7 °C 1029.3 hPa NNE 4.8 km/h 14.5 km/h 58% 0 mm
17:34 15.8 °C 8.3 °C 1029.3 hPa Calm   14.5 km/h 61% 0 mm
17:39 16.5 °C 7.9 °C 1029.3 hPa NNW 6.4 km/h 11.3 km/h 57% 0 mm
17:44 16.9 °C 8.6 °C 1029.3 hPa NNW 3.2 km/h 11.3 km/h 58% 0 mm
17:49 16.8 °C 8.5 °C 1029.3 hPa North 3.2 km/h 9.7 km/h 58% 0 mm
17:54 16.6 °C 8.3 °C 1029 hPa North 4.8 km/h 12.9 km/h 58% 0 mm
17:59 16.2 °C 7.9 °C 1029 hPa North 3.2 km/h 8 km/h 58% 0 mm
18:04 16.1 °C 8.3 °C 1029 hPa North 1.6 km/h 8 km/h 60% 0 mm
18:09 16.2 °C 8.4 °C 1029.3 hPa North 1.6 km/h 4.8 km/h 60% 0 mm
18:14 16.1 °C 8.1 °C 1029.3 hPa NNE 1.6 km/h 11.3 km/h 59% 0 mm
18:19 15.8 °C 7.8 °C 1029.3 hPa NNE 3.2 km/h 11.3 km/h 59% 0 mm
18:24 15.8 °C 7.8 °C 1029.3 hPa NNW 3.2 km/h 11.3 km/h 59% 0 mm
18:29 15.7 °C 7.9 °C 1029.3 hPa North 1.6 km/h 8 km/h 60% 0 mm
18:34 15.7 °C 7.7 °C 1029 hPa NNW 3.2 km/h 8 km/h 59% 0 mm
18:44 15.6 °C 8.1 °C 1029.3 hPa NNW 3.2 km/h 8 km/h 61% 0 mm
18:49 15.3 °C 7.8 °C 1029.3 hPa NNW 1.6 km/h 9.7 km/h 61% 0 mm
18:54 15.3 °C 7.8 °C 1029.3 hPa NNW 3.2 km/h 11.3 km/h 61% 0 mm
18:59 15.2 °C 7.7 °C 1029.3 hPa NNW 3.2 km/h 11.3 km/h 61% 0 mm
19:04 15 °C 7.8 °C 1029.3 hPa NNW 3.2 km/h 11.3 km/h 62% 0 mm
19:09 14.9 °C 7.9 °C 1029.3 hPa Calm   6.4 km/h 63% 0 mm
19:14 14.6 °C 7.9 °C 1029.3 hPa NNW 1.6 km/h 6.4 km/h 64% 0 mm
19:19 14.5 °C 7.6 °C 1029.3 hPa NNW 1.6 km/h 6.4 km/h 63% 0 mm
19:24 14.3 °C 7.6 °C 1029.3 hPa Calm   3.2 km/h 64% 0 mm
19:29 14.2 °C 7.7 °C 1029.3 hPa Calm     65% 0 mm
19:34 13.9 °C 7.7 °C 1029.3 hPa Calm   3.2 km/h 66% 0 mm
19:39 13.8 °C 7.6 °C 1029.3 hPa Calm     66% 0 mm
19:44 13.7 °C 7.4 °C 1029.3 hPa Calm     66% 0 mm
19:49 13.6 °C 7.6 °C 1029.3 hPa Calm     67% 0 mm
19:54 13.4 °C 7.4 °C 1029.3 hPa Calm     67% 0 mm
19:59 13.4 °C 7.7 °C 1029.3 hPa Calm     68% 0 mm
20:04 13.3 °C 7.5 °C 1029.3 hPa Calm     68% 0 mm
20:09 13 °C 7.4 °C 1029.3 hPa Calm     69% 0 mm
20:14 12.9 °C 7.4 °C 1029.3 hPa Calm     69% 0 mm
20:19 12.9 °C 7.3 °C 1029.3 hPa Calm     69% 0 mm
20:24 12.8 °C 7.5 °C 1029.7 hPa Calm     70% 0 mm
20:29 12.8 °C 7.4 °C 1029.7 hPa Calm     70% 0 mm
20:34 12.7 °C 7.4 °C 1029.7 hPa Calm     70% 0 mm
20:39 12.5 °C 7.4 °C 1029.7 hPa Calm     71% 0 mm
20:44 12.3 °C 7.4 °C 1029.7 hPa Calm     72% 0 mm
20:49 12.1 °C 7.4 °C 1029.7 hPa Calm     73% 0 mm
20:54 12 °C 7.5 °C 1029.7 hPa Calm     74% 0 mm
20:59 11.8 °C 7.3 °C 1029.7 hPa Calm     74% 0 mm
21:04 11.7 °C 7.4 °C 1029.7 hPa Calm     75% 0 mm
21:09 11.5 °C 7.4 °C 1030 hPa Calm     76% 0 mm
21:14 11.3 °C 7.2 °C 1030 hPa Calm     76% 0 mm
21:19 11.3 °C 7.2 °C 1030 hPa Calm     76% 0 mm
21:24 11.3 °C 7.3 °C 1030 hPa Calm     76% 0 mm
21:29 11.1 °C 7.2 °C 1030 hPa Calm     77% 0 mm
21:34 11.1 °C 7.2 °C 1030 hPa Calm     77% 0 mm
21:39 10.9 °C 7.3 °C 1030 hPa Calm     78% 0 mm
21:44 10.9 °C 7.3 °C 1030 hPa Calm     78% 0 mm
21:54 10.6 °C 7.1 °C 1030 hPa Calm     79% 0 mm
21:59 10.6 °C 7.1 °C 1030 hPa Calm     79% 0 mm
22:04 10.6 °C 7.1 °C 1030 hPa Calm     79% 0 mm
22:09 10.4 °C 6.9 °C 1030 hPa Calm     79% 0 mm
22:14 10.3 °C 7.2 °C 1030 hPa Calm     81% 0 mm
22:19 10.2 °C 7.1 °C 1030 hPa Calm     81% 0 mm
22:24 10.2 °C 7.2 °C 1030 hPa Calm     82% 0 mm
22:29 10.1 °C 6.9 °C 1030 hPa Calm     81% 0 mm
22:34 10 °C 7.1 °C 1030 hPa Calm     82% 0 mm
22:39 9.9 °C 6.9 °C 1030 hPa Calm     82% 0 mm
22:44 9.8 °C 6.9 °C 1030.4 hPa Calm     82% 0 mm
22:49 9.9 °C 7.2 °C 1030.4 hPa Calm     83% 0 mm
22:54 9.9 °C 7.2 °C 1030.4 hPa Calm     83% 0 mm
22:59 10.1 °C 7.3 °C 1030.4 hPa Calm     83% 0 mm
23:04 10.3 °C 7.5 °C 1030.4 hPa Calm     83% 0 mm
23:09 10.4 °C 7.5 °C 1030.4 hPa Calm     82% 0 mm
23:14 10.5 °C 7.6 °C 1030.4 hPa Calm     82% 0 mm
23:19 10.5 °C 7.6 °C 1030.4 hPa Calm     82% 0 mm
23:24 10.6 °C 7.6 °C 1030.4 hPa Calm     82% 0 mm
23:29 10.5 °C 7.6 °C 1030.4 hPa Calm     82% 0 mm
23:34 10.4 °C 7.6 °C 1030.4 hPa Calm     83% 0 mm
23:39 10.2 °C 7.4 °C 1030.4 hPa Calm     83% 0 mm
23:44 10.2 °C 7.6 °C 1030.4 hPa Calm     84% 0 mm
23:49 10.1 °C 7.6 °C 1030.4 hPa Calm     84% 0 mm
23:54 10 °C 7.4 °C 1030.4 hPa Calm     84% 0 mm
23:59 9.8 °C 7.4 °C 1030.4 hPa Calm     85% 0 mm
Buffalo, New York, USA
Compliments of Weather Underground - 2.5 mb